Time;durP1;ratioP1;P1;durP2;ratioP2;P2;SDS_P1;SDS_P2;PMS_P1;PMS_P2;Temp;Humidity;BMP_temperature;BMP_pressure;BME280_temperature;BME280_humidity;BME280_pressure;Samples;Min_cycle;Max_cycle;Signal;HPM_P1;HPM_P2
2021/03/16 00:01:37;;;;;;;61.20;36.58;;;;;;;-2.39;80.51;95176.97;5001830;28;20389;-55
2021/03/16 00:04:08;;;;;;;64.00;39.35;;;;;;;-2.41;79.81;95178.97;5011055;28;20538;-55
2021/03/16 00:06:56;;;;;;;67.82;40.03;;;;;;;-2.46;79.96;95182.09;4981594;28;20454;-55
2021/03/16 00:09:23;;;;;;;65.53;40.67;;;;;;;-2.47;80.27;95185.72;4994930;28;20059;-55
2021/03/16 00:11:50;;;;;;;69.65;39.20;;;;;;;-2.49;80.45;95183.28;4990656;28;20053;-55
2021/03/16 00:14:17;;;;;;;69.05;40.10;;;;;;;-2.53;80.94;95183.88;5014731;28;20064;-55
2021/03/16 00:16:45;;;;;;;66.32;40.78;;;;;;;-2.56;80.51;95182.47;5010905;28;20037;-55
2021/03/16 00:19:15;;;;;;;69.75;37.05;;;;;;;-2.58;80.07;95187.03;5008853;28;20053;-55
2021/03/16 00:21:43;;;;;;;68.40;39.42;;;;;;;-2.58;80.33;95184.44;5015944;28;20053;-55
2021/03/16 00:24:10;;;;;;;65.68;38.22;;;;;;;-2.60;80.21;95176.09;4998678;28;20053;-56
2021/03/16 00:26:38;;;;;;;67.72;38.22;;;;;;;-2.63;81.12;95176.47;5008874;28;20045;-56
2021/03/16 00:29:05;;;;;;;71.82;39.05;;;;;;;-2.69;81.22;95172.06;5014771;28;20060;-56
2021/03/16 00:31:33;;;;;;;83.47;43.75;;;;;;;-2.73;81.69;95187.16;5020880;28;20089;-55
2021/03/16 00:34:00;;;;;;;65.28;38.00;;;;;;;-2.75;81.68;95178.81;5010923;28;20168;-55
2021/03/16 00:36:27;;;;;;;70.85;40.65;;;;;;;-2.75;81.92;95178.00;5013333;28;20048;-55
2021/03/16 00:38:56;;;;;;;69.47;36.42;;;;;;;-2.73;81.60;95181.19;5009606;28;20049;-55
2021/03/16 00:41:23;;;;;;;61.15;38.90;;;;;;;-2.75;81.55;95178.00;5018074;28;20060;-55
2021/03/16 00:43:52;;;;;;;65.38;38.00;;;;;;;-2.81;81.63;95182.94;4989536;28;20061;-55
2021/03/16 00:46:20;;;;;;;64.15;37.03;;;;;;;-2.84;82.20;95191.06;5013150;28;20429;-55
2021/03/16 00:48:47;;;;;;;64.82;37.00;;;;;;;-2.85;81.90;95192.03;4994324;28;20056;-55
2021/03/16 00:51:16;;;;;;;67.05;42.95;;;;;;;-2.87;82.43;95200.97;5007894;28;20520;-55
2021/03/16 00:53:45;;;;;;;60.67;36.85;;;;;;;-2.88;82.30;95195.00;5006535;28;21396;-56
2021/03/16 00:56:12;;;;;;;65.68;41.10;;;;;;;-2.89;81.82;95188.22;4994146;28;20053;-55
2021/03/16 00:58:40;;;;;;;64.07;36.88;;;;;;;-2.95;82.42;95189.78;5008103;28;20049;-55
2021/03/16 01:01:07;;;;;;;55.00;33.38;;;;;;;-2.94;82.00;95190.59;5007199;28;20054;-55
2021/03/16 01:03:35;;;;;;;53.92;34.38;;;;;;;-2.94;82.51;95185.44;5012840;28;20046;-55
2021/03/16 01:06:04;;;;;;;57.60;36.05;;;;;;;-2.95;82.67;95184.63;5015142;28;20137;-55
2021/03/16 01:08:32;;;;;;;59.42;35.60;;;;;;;-2.98;82.80;95184.22;5018151;28;20053;-55
2021/03/16 01:11:00;;;;;;;65.10;36.20;;;;;;;-3.00;82.49;95186.16;5006057;28;20052;-55
2021/03/16 01:13:28;;;;;;;61.80;35.38;;;;;;;-3.05;83.13;95179.00;5007368;28;20060;-55
2021/03/16 01:15:55;;;;;;;57.10;34.03;;;;;;;-3.05;82.83;95175.63;5007636;28;20061;-55
2021/03/16 01:18:22;;;;;;;57.53;31.85;;;;;;;-3.03;83.14;95187.34;5005088;28;20064;-55
2021/03/16 01:20:50;;;;;;;54.10;33.38;;;;;;;-3.03;83.01;95189.94;4991082;28;20048;-56
2021/03/16 01:23:17;;;;;;;61.60;33.60;;;;;;;-3.03;83.19;95191.72;5016551;28;20048;-55
2021/03/16 01:26:06;;;;;;;57.75;34.38;;;;;;;-3.05;83.06;95188.53;5003443;28;20490;-55
2021/03/16 01:28:35;;;;;;;57.97;32.92;;;;;;;-3.09;83.33;95194.06;4993556;28;20056;-55
2021/03/16 01:31:02;;;;;;;59.63;37.10;;;;;;;-3.10;83.34;95192.47;4987200;28;20067;-57
2021/03/16 01:33:31;;;;;;;64.20;36.10;;;;;;;-3.09;83.43;95193.28;5009909;28;20145;-61
2021/03/16 01:35:58;;;;;;;69.32;33.95;;;;;;;-3.12;83.29;95183.34;5007206;28;20045;-55
2021/03/16 01:38:25;;;;;;;51.30;30.33;;;;;;;-3.15;83.13;95184.50;5012285;28;20655;-55
2021/03/16 01:40:53;;;;;;;55.88;31.15;;;;;;;-3.11;82.88;95192.66;5002584;28;20057;-55
2021/03/16 01:43:28;;;;;;;51.30;28.45;;;;;;;-3.10;83.11;95181.38;4979850;28;20405;-55
2021/03/16 01:45:56;;;;;;;51.45;31.45;;;;;;;-3.09;82.97;95188.91;4995595;28;21760;-56
2021/03/16 01:48:33;;;;;;;53.25;31.15;;;;;;;-3.09;83.14;95194.06;4966215;28;20422;-55
2021/03/16 01:51:02;;;;;;;48.47;28.85;;;;;;;-3.08;83.19;95192.31;5014616;28;20123;-55
2021/03/16 01:53:29;;;;;;;56.08;31.50;;;;;;;-3.07;82.93;95187.91;5012023;28;20207;-55
2021/03/16 01:55:58;;;;;;;54.92;31.98;;;;;;;-3.07;83.01;95195.66;5013471;28;20049;-55
2021/03/16 01:58:44;;;;;;;46.97;29.42;;;;;;;-3.09;82.83;95188.91;5014646;28;20059;-55
2021/03/16 02:01:31;;;;;;;54.30;31.88;;;;;;;-3.12;83.34;95189.28;5010176;28;20080;-55
2021/03/16 02:04:17;;;;;;;51.50;30.33;;;;;;;-3.11;82.99;95201.19;5018530;28;20049;-55
2021/03/16 02:07:13;;;;;;;58.90;33.30;;;;;;;-3.14;82.93;95196.41;5002221;28;20045;-55
2021/03/16 02:10:31;;;;;;;53.25;30.77;;;;;;;-3.16;83.26;95193.22;5017149;28;20045;-56
2021/03/16 02:13:17;;;;;;;49.28;29.48;;;;;;;-3.17;83.08;95201.94;4996163;28;20057;-55
2021/03/16 02:16:15;;;;;;;47.95;30.10;;;;;;;-3.21;83.29;95200.72;5012163;28;20060;-55
2021/03/16 02:19:21;;;;;;;47.75;30.60;;;;;;;-3.20;83.22;95201.53;5010547;28;20409;-56
2021/03/16 02:22:08;;;;;;;49.17;30.98;;;;;;;-3.20;83.41;95201.53;5002575;28;20060;-56
2021/03/16 02:25:32;;;;;;;51.00;32.53;;;;;;;-3.21;83.32;95198.16;5008083;28;20045;-55
2021/03/16 02:28:29;;;;;;;48.85;27.63;;;;;;;-3.20;83.48;95196.38;5010340;28;20049;-55
2021/03/16 02:31:17;;;;;;;60.63;34.70;;;;;;;-3.16;83.04;95200.16;5014852;28;20041;-55
2021/03/16 02:34:05;;;;;;;55.67;31.38;;;;;;;-3.16;83.00;95202.75;5012782;28;20822;-55
2021/03/16 02:36:53;;;;;;;51.15;32.30;;;;;;;-3.18;83.42;95208.09;5010372;28;20045;-55
2021/03/16 02:39:41;;;;;;;53.33;31.02;;;;;;;-3.19;83.31;95200.53;5011689;28;20041;-55
2021/03/16 02:42:28;;;;;;;59.08;33.90;;;;;;;-3.25;83.13;95204.66;4992811;28;20049;-56
2021/03/16 02:45:14;;;;;;;54.25;30.92;;;;;;;-3.28;83.26;95199.88;5015582;28;20486;-55
2021/03/16 02:48:02;;;;;;;53.95;31.42;;;;;;;-3.28;83.04;95202.47;5016324;28;20041;-55
2021/03/16 02:50:50;;;;;;;57.13;31.83;;;;;;;-3.31;83.60;95197.66;4991927;28;20885;-58
2021/03/16 02:53:37;;;;;;;52.33;32.53;;;;;;;-3.33;83.19;95202.22;4994867;28;20057;-55
2021/03/16 02:56:24;;;;;;;52.22;31.35;;;;;;;-3.34;83.93;95205.78;5013586;28;20042;-55
2021/03/16 02:59:12;;;;;;;53.42;31.95;;;;;;;-3.35;83.84;95199.81;5011139;28;20057;-55
2021/03/16 03:02:00;;;;;;;57.90;32.55;;;;;;;-3.37;83.64;95201.78;4991662;28;20045;-55
2021/03/16 03:04:47;;;;;;;54.72;31.77;;;;;;;-3.38;83.73;95194.25;4991071;28;20050;-57
2021/03/16 03:07:35;;;;;;;49.15;30.42;;;;;;;-3.41;83.97;95201.38;5005260;28;20552;-55
2021/03/16 03:10:25;;;;;;;54.63;31.17;;;;;;;-3.44;83.82;95204.31;5009912;28;20667;-56
2021/03/16 03:13:11;;;;;;;49.22;29.95;;;;;;;-3.44;84.29;95206.06;5008010;28;20561;-55
2021/03/16 03:15:57;;;;;;;52.28;31.05;;;;;;;-3.46;84.24;95208.06;5011001;28;20065;-55
2021/03/16 03:18:44;;;;;;;57.20;31.30;;;;;;;-3.45;84.03;95201.94;4990975;28;20046;-56
2021/03/16 03:21:33;;;;;;;;;;;;;;;-3.44;84.23;95206.06;4996052;28;20529;-55
2021/03/16 03:24:28;;;;;;;50.47;27.27;;;;;;;-3.45;84.22;95210.44;5001095;28;19921;-56
2021/03/16 03:27:29;;;;;;;51.83;30.83;;;;;;;-3.45;84.19;95218.19;4994861;28;20046;-55
2021/03/16 03:30:18;;;;;;;57.35;32.03;;;;;;;-3.47;84.44;95202.09;5007822;28;20210;-55
2021/03/16 03:33:06;;;;;;;50.38;32.20;;;;;;;-3.50;84.50;95207.63;4990910;28;20050;-55
2021/03/16 03:35:53;;;;;;;52.03;30.30;;;;;;;-3.51;84.34;95213.78;5001166;28;20064;-55
2021/03/16 03:38:41;;;;;;;55.55;31.23;;;;;;;-3.52;84.34;95214.75;4995680;28;20049;-55
2021/03/16 03:41:27;;;;;;;48.10;29.55;;;;;;;-3.54;84.03;95216.72;5006336;28;20046;-60
2021/03/16 03:44:14;;;;;;;48.78;29.63;;;;;;;-3.56;84.45;95229.78;5007053;28;20533;-55
2021/03/16 03:47:03;;;;;;;53.67;31.52;;;;;;;-3.60;84.79;95223.41;5006745;28;20565;-55
2021/03/16 03:49:51;;;;;;;49.95;31.05;;;;;;;-3.64;84.70;95216.22;4991984;28;20628;-58
2021/03/16 03:52:37;;;;;;;46.85;28.17;;;;;;;-3.65;84.43;95214.63;4996145;28;20061;-55
2021/03/16 03:55:24;;;;;;;50.10;30.23;;;;;;;-3.64;84.36;95221.38;5003057;28;20050;-55
2021/03/16 03:58:16;;;;;;;51.30;29.85;;;;;;;-3.65;84.41;95224.94;4998780;28;20045;-55
2021/03/16 04:01:02;;;;;;;50.47;30.08;;;;;;;-3.61;84.88;95221.81;5009998;28;20053;-55
2021/03/16 04:03:49;;;;;;;47.10;27.60;;;;;;;-3.60;84.72;95228.56;5015776;28;20531;-56
2021/03/16 04:06:36;;;;;;;53.35;31.40;;;;;;;-3.56;84.78;95234.16;4992305;28;23711;-55
2021/03/16 04:09:22;;;;;;;48.63;28.33;;;;;;;-3.53;84.53;95232.97;5008147;28;20583;-55
2021/03/16 04:12:10;;;;;;;48.78;29.33;;;;;;;-3.61;84.39;95221.81;5009160;28;20053;-55
2021/03/16 04:14:56;;;;;;;47.10;27.20;;;;;;;-3.60;84.35;95225.19;5010104;28;20073;-55
2021/03/16 04:17:45;;;;;;;49.35;29.17;;;;;;;-3.56;84.44;95234.16;5017905;28;20128;-55
2021/03/16 04:20:32;;;;;;;51.78;28.60;;;;;;;-3.56;84.33;95231.56;4988847;28;20061;-55
2021/03/16 04:23:19;;;;;;;48.78;31.02;;;;;;;-3.58;84.28;95234.34;5006488;28;20049;-55
2021/03/16 04:26:05;;;;;;;59.92;31.35;;;;;;;-3.57;84.37;95238.50;5012160;28;20057;-56
2021/03/16 04:28:52;;;;;;;50.85;31.83;;;;;;;-3.58;84.35;95234.34;5013012;28;20385;-55
2021/03/16 04:31:38;;;;;;;58.55;31.13;;;;;;;-3.61;84.14;95234.69;5008666;28;20048;-55
2021/03/16 04:34:25;;;;;;;56.25;31.88;;;;;;;-3.62;83.82;95237.44;4996409;28;20056;-55
2021/03/16 04:37:11;;;;;;;54.88;28.70;;;;;;;-3.59;84.10;95237.09;4990514;28;20534;-55
2021/03/16 04:39:57;;;;;;;52.03;29.92;;;;;;;-3.57;84.34;95243.66;5012582;28;20397;-56
2021/03/16 04:42:43;;;;;;;57.33;33.38;;;;;;;-3.57;83.92;95253.16;5010862;28;20053;-55
2021/03/16 04:45:28;;;;;;;47.72;30.88;;;;;;;-3.55;84.44;95252.00;5011297;28;20073;-56
2021/03/16 04:48:14;;;;;;;55.70;31.95;;;;;;;-3.56;84.28;95249.63;4980549;28;20053;-55
2021/03/16 04:51:01;;;;;;;61.42;33.45;;;;;;;-3.52;84.43;95265.50;5012140;28;20053;-55
2021/03/16 04:53:48;;;;;;;76.15;38.50;;;;;;;-3.52;84.12;95263.75;5009700;28;20676;-55
2021/03/16 04:56:34;;;;;;;58.72;33.53;;;;;;;-3.49;83.87;95252.25;5010360;28;20535;-55
2021/03/16 04:59:20;;;;;;;55.08;34.47;;;;;;;-3.49;84.08;95255.63;5010897;28;20054;-55
2021/03/16 05:02:08;;;;;;;48.72;30.70;;;;;;;-3.52;83.97;95257.78;5010224;28;20481;-56
2021/03/16 05:04:53;;;;;;;53.78;32.28;;;;;;;-3.50;83.94;95259.19;5011002;28;20049;-55
2021/03/16 05:07:39;;;;;;;48.38;29.75;;;;;;;-3.51;83.60;95257.59;5011469;28;20532;-55
2021/03/16 05:10:25;;;;;;;46.70;30.75;;;;;;;-3.49;83.96;95260.78;5013226;28;20053;-55
2021/03/16 05:13:11;;;;;;;;;;;;;;;-3.53;84.17;95262.16;5014107;28;20060;-55
2021/03/16 05:15:56;;;;;;;54.58;33.25;;;;;;;-3.43;85.46;95272.13;5009840;28;19925;-55
2021/03/16 05:18:44;;;;;;;55.00;32.67;;;;;;;-3.34;84.69;95267.66;5004136;28;20038;-55
2021/03/16 05:21:30;;;;;;;50.83;31.15;;;;;;;-3.33;83.87;95272.66;5011201;28;20048;-56
2021/03/16 05:24:16;;;;;;;51.67;30.67;;;;;;;-3.37;83.68;95280.91;5016912;28;20048;-57
2021/03/16 05:27:03;;;;;;;59.97;32.08;;;;;;;-3.36;83.76;95277.38;5000377;28;20052;-55
2021/03/16 05:29:50;;;;;;;64.05;36.40;;;;;;;-3.33;84.11;95277.00;4995076;28;20608;-58
2021/03/16 05:32:35;;;;;;;55.42;33.47;;;;;;;-3.42;83.54;95271.97;5012671;28;20120;-55
2021/03/16 05:35:23;;;;;;;59.42;34.17;;;;;;;-3.27;83.69;95282.22;5014213;28;20081;-55
2021/03/16 05:38:09;;;;;;;60.03;34.13;;;;;;;-3.24;83.24;95288.78;5017667;28;20567;-55
2021/03/16 05:40:56;;;;;;;72.32;38.17;;;;;;;-3.19;83.74;95291.63;5015235;28;20042;-55
2021/03/16 05:43:42;;;;;;;64.57;37.72;;;;;;;-3.13;83.60;95293.44;5011235;28;20053;-55
2021/03/16 05:46:28;;;;;;;68.25;38.55;;;;;;;-3.11;83.87;95301.81;5015146;28;20053;-55
2021/03/16 05:49:16;;;;;;;72.68;38.17;;;;;;;-3.09;83.70;95286.16;5010911;28;20049;-57
2021/03/16 05:52:04;;;;;;;62.28;38.72;;;;;;;-2.97;83.37;95301.94;4998218;28;20067;-55
2021/03/16 05:54:54;;;;;;;58.85;34.75;;;;;;;-2.90;83.46;95300.22;4994084;28;20053;-56
2021/03/16 05:57:40;;;;;;;57.15;34.97;;;;;;;-2.86;83.65;95301.41;4998908;28;20057;-55
2021/03/16 06:00:26;;;;;;;64.78;38.95;;;;;;;-2.76;83.22;95303.69;5016215;28;20053;-55
2021/03/16 06:03:12;;;;;;;61.95;36.47;;;;;;;-2.67;82.53;95299.97;5014160;28;20548;-55
2021/03/16 06:05:58;;;;;;;;;;;;;;;-2.55;82.47;95305.44;5009563;28;20049;-55
2021/03/16 06:08:45;;;;;;;76.28;46.72;;;;;;;-2.44;82.81;95308.50;5017164;28;19930;-55
2021/03/16 06:11:33;;;;;;;56.40;34.08;;;;;;;-2.34;81.99;95314.09;5007366;28;20061;-63
2021/03/16 06:14:29;;;;;;;72.35;43.78;;;;;;;-2.21;82.37;95314.19;5001237;28;20053;-59
2021/03/16 06:17:16;;;;;;;71.03;41.95;;;;;;;-2.12;81.95;95316.63;5012290;28;20490;-55
2021/03/16 06:20:03;;;;;;;68.78;41.63;;;;;;;-2.03;81.73;95313.69;5016262;28;20075;-55
2021/03/16 06:22:49;;;;;;;58.95;36.70;;;;;;;-1.87;81.31;95315.16;5013424;28;20049;-56
2021/03/16 06:25:43;;;;;;;57.63;34.85;;;;;;;-1.77;80.87;95314.81;5023433;28;20052;-55
2021/03/16 06:28:31;;;;;;;55.30;35.22;;;;;;;-1.64;80.70;95316.63;5024772;28;20061;-55
2021/03/16 06:31:22;;;;;;;46.92;31.13;;;;;;;-1.55;80.37;95310.31;5022816;28;20049;-55
2021/03/16 06:34:18;;;;;;;56.00;30.35;;;;;;;-1.44;79.38;95313.34;5014883;28;20462;-55
2021/03/16 06:37:04;;;;;;;43.63;29.92;;;;;;;-1.31;78.61;95318.53;5013727;28;20960;-56
2021/03/16 06:39:54;;;;;;;57.35;33.85;;;;;;;-1.26;78.64;95313.56;5017044;28;21667;-55
2021/03/16 06:42:40;;;;;;;52.58;30.95;;;;;;;-1.15;78.50;95321.75;4989779;28;20049;-55
2021/03/16 06:45:29;;;;;;;;;;;;;;;-1.24;77.78;95316.75;4999557;28;20119;-55
2021/03/16 06:48:23;;;;;;;49.80;31.40;;;;;;;-1.29;78.28;95316.53;5004265;28;19921;-55
2021/03/16 06:51:11;;;;;;;57.15;34.53;;;;;;;-1.42;78.08;95319.91;5014149;28;20501;-56
2021/03/16 06:54:19;;;;;;;57.13;35.80;;;;;;;-1.44;78.39;95326.28;5018445;28;20045;-55
2021/03/16 06:57:08;;;;;;;67.40;41.63;;;;;;;-1.43;78.80;95328.66;5008451;28;20053;-56
2021/03/16 06:59:54;;;;;;;69.00;39.30;;;;;;;-1.38;78.31;95337.63;4991874;28;20045;-55
2021/03/16 07:02:40;;;;;;;72.22;44.08;;;;;;;-1.32;78.65;95336.84;5019650;28;20050;-55
2021/03/16 07:05:28;;;;;;;73.65;45.03;;;;;;;-1.36;78.62;95335.66;5016532;28;20049;-55
2021/03/16 07:08:17;;;;;;;82.35;52.25;;;;;;;-1.31;78.83;95341.03;5010101;28;20049;-55
2021/03/16 07:11:05;;;;;;;69.32;40.75;;;;;;;-1.25;78.78;95343.63;5012971;28;20402;-55
2021/03/16 07:13:53;;;;;;;65.32;40.20;;;;;;;-1.12;79.17;95339.47;5024239;28;20050;-55
2021/03/16 07:16:39;;;;;;;74.10;43.20;;;;;;;-0.96;78.46;95346.88;5021450;28;20064;-56
2021/03/16 07:19:25;;;;;;;73.43;40.40;;;;;;;-0.71;78.12;95338.53;5001154;28;20049;-57
2021/03/16 07:22:19;;;;;;;75.57;42.65;;;;;;;-0.31;77.36;95348.88;5006045;28;20045;-59
2021/03/16 07:25:07;;;;;;;78.07;47.08;;;;;;;0.07;78.59;95351.81;5003353;28;20395;-56
2021/03/16 07:27:54;;;;;;;73.60;41.85;;;;;;;0.45;77.94;95346.72;5009199;28;20057;-55
2021/03/16 07:30:50;;;;;;;73.20;42.88;;;;;;;0.88;77.94;95355.72;5021233;28;20037;-55
2021/03/16 07:33:36;;;;;;;69.00;41.03;;;;;;;1.15;75.06;95342.56;4991054;28;20053;-55
2021/03/16 07:36:23;;;;;;;71.88;37.60;;;;;;;1.47;75.90;95357.34;5019684;28;20038;-56
2021/03/16 07:39:11;;;;;;;;;;;;;;;1.79;73.98;95355.47;5015536;28;20053;-56
2021/03/16 07:41:58;;;;;;;51.55;29.70;;;;;;;2.13;72.17;95352.56;5019012;28;19925;-55
2021/03/16 07:44:44;;;;;;;42.70;24.98;;;;;;;2.43;66.77;95357.84;5013226;28;20060;-56
2021/03/16 07:47:37;;;;;;;42.33;26.15;;;;;;;2.73;66.28;95351.06;5019172;28;21086;-56
2021/03/16 07:50:29;;;;;;;44.00;28.50;;;;;;;3.03;67.39;95365.94;4996222;28;20057;-55
2021/03/16 07:53:28;;;;;;;47.85;28.33;;;;;;;3.25;65.19;95361.03;4991139;28;20510;-55
2021/03/16 07:56:24;;;;;;;49.38;31.58;;;;;;;3.36;65.80;95362.06;4981328;28;20076;-55
2021/03/16 07:59:10;;;;;;;45.55;31.27;;;;;;;3.37;66.16;95363.66;5003504;28;20050;-55
2021/03/16 08:01:56;;;;;;;45.75;29.80;;;;;;;3.44;64.82;95363.53;4994769;28;20057;-57
2021/03/16 08:04:43;;;;;;;42.28;31.95;;;;;;;3.62;64.50;95360.88;4997277;28;20056;-56
2021/03/16 08:07:30;;;;;;;43.83;29.10;;;;;;;3.77;64.34;95367.44;4997651;28;20197;-55
2021/03/16 08:10:33;;;;;;;43.80;27.45;;;;;;;3.88;62.81;95364.03;5003435;28;20045;-55
2021/03/16 08:13:19;;;;;;;41.40;26.30;;;;;;;3.99;62.90;95370.28;5006201;28;20053;-55
2021/03/16 08:16:16;;;;;;;36.35;25.48;;;;;;;4.25;60.41;95374.25;5004663;28;20145;-55
2021/03/16 08:19:14;;;;;;;33.97;22.45;;;;;;;4.50;59.20;95364.56;4998137;28;20049;-55
2021/03/16 08:21:59;;;;;;;31.85;22.65;;;;;;;4.66;58.71;95363.88;5007492;28;20057;-56
2021/03/16 08:24:52;;;;;;;35.00;22.83;;;;;;;4.87;58.02;95372.88;5012833;28;20060;-57
2021/03/16 08:27:39;;;;;;;44.30;26.15;;;;;;;4.96;57.98;95368.06;4982247;28;20057;-56
2021/03/16 08:30:25;;;;;;;35.95;22.90;;;;;;;5.14;56.31;95372.31;5005696;28;20053;-58
2021/03/16 08:33:15;;;;;;;36.10;23.25;;;;;;;5.34;55.40;95377.13;5004070;28;20053;-56
2021/03/16 08:36:02;;;;;;;34.92;21.90;;;;;;;5.54;53.86;95368.00;5004346;28;20053;-56
2021/03/16 08:38:52;;;;;;;29.55;21.75;;;;;;;5.78;54.01;95368.66;4994398;28;20485;-59
2021/03/16 08:41:38;;;;;;;31.25;20.98;;;;;;;5.94;53.55;95371.53;5012813;28;20059;-56
2021/03/16 08:44:26;;;;;;;32.65;22.92;;;;;;;6.05;52.23;95375.09;4981269;28;20088;-59
2021/03/16 08:47:20;;;;;;;30.27;21.95;;;;;;;6.17;51.93;95386.25;5006010;28;20050;-64
2021/03/16 08:50:07;;;;;;;34.45;22.02;;;;;;;6.14;51.40;95387.53;5008895;28;20048;-61
2021/03/16 08:52:53;;;;;;;36.90;21.33;;;;;;;6.11;51.84;95390.63;5011746;28;20057;-56
2021/03/16 08:55:38;;;;;;;;;;;;;;;6.07;51.38;95394.78;5015598;28;20793;-56
2021/03/16 08:58:27;;;;;;;33.10;22.02;;;;;;;6.03;51.88;95391.06;5019846;28;20448;-56
2021/03/16 09:01:23;;;;;;;34.30;23.25;;;;;;;5.96;52.42;95396.41;5018595;28;20045;-56
2021/03/16 09:04:12;;;;;;;;;;;;;;;5.97;53.02;95395.38;5019093;28;20049;-55
2021/03/16 09:06:57;;;;;;;42.97;25.20;;;;;;;6.01;52.38;95398.34;5022800;28;19925;-56
2021/03/16 09:09:43;;;;;;;33.95;23.38;;;;;;;5.95;50.77;95400.06;5012253;28;20045;-56
2021/03/16 09:12:30;;;;;;;35.28;25.10;;;;;;;5.88;51.23;95402.06;5021377;28;20053;-55
2021/03/16 09:15:28;;;;;;;34.15;22.95;;;;;;;5.87;50.93;95397.03;5020735;28;20041;-58
2021/03/16 09:18:15;;;;;;;38.33;24.77;;;;;;;5.84;51.57;95399.13;4996659;28;20045;-56
2021/03/16 09:21:05;;;;;;;36.40;22.92;;;;;;;5.72;50.79;95398.41;5015844;28;20054;-56
2021/03/16 09:23:51;;;;;;;38.70;25.42;;;;;;;5.59;52.06;95406.56;5017567;28;20053;-57
2021/03/16 09:26:37;;;;;;;37.05;26.13;;;;;;;5.57;51.91;95414.63;5020269;28;20049;-56
2021/03/16 09:29:35;;;;;;;34.22;24.65;;;;;;;5.72;52.08;95415.94;4994902;28;20410;-56
2021/03/16 09:32:43;;;;;;;35.60;24.23;;;;;;;5.89;51.70;95410.69;5000428;28;20064;-56
2021/03/16 09:35:30;;;;;;;35.88;23.77;;;;;;;6.05;51.64;95420.41;5001385;28;20053;-54
2021/03/16 09:38:18;;;;;;;33.88;25.17;;;;;;;6.25;50.97;95424.34;5001382;28;20045;-55
2021/03/16 09:41:15;;;;;;;35.25;25.80;;;;;;;6.68;50.17;95422.06;4991145;28;20053;-55
2021/03/16 09:43:44;;;;;;;32.42;22.90;;;;;;;6.86;50.97;95426.19;5005309;28;20057;-54
2021/03/16 09:46:13;;;;;;;35.45;23.13;;;;;;;6.83;50.62;95424.88;4991847;28;20049;-55
2021/03/16 09:48:50;;;;;;;30.48;21.38;;;;;;;6.75;49.49;95412.97;5009577;28;20749;-58
2021/03/16 09:51:21;;;;;;;31.15;23.30;;;;;;;6.80;49.86;95421.94;5004051;28;20688;-56
2021/03/16 09:53:56;;;;;;;29.00;21.40;;;;;;;6.83;48.54;95418.84;4989520;28;20054;-55
2021/03/16 09:56:32;;;;;;;31.42;21.08;;;;;;;6.90;49.03;95432.56;5008873;28;20056;-54
2021/03/16 09:59:00;;;;;;;;;;;;;;;6.84;49.23;95430.91;5005563;28;20517;-55
2021/03/16 10:01:29;;;;;;;31.55;23.92;;;;;;;6.85;49.10;95435.09;5008611;28;19928;-57
2021/03/16 10:04:01;;;;;;;35.10;24.30;;;;;;;6.84;48.75;95429.09;4973717;28;20242;-56
2021/03/16 10:06:34;;;;;;;36.17;22.80;;;;;;;6.91;49.40;95424.44;5008008;28;20072;-56
2021/03/16 10:09:22;;;;;;;31.65;22.88;;;;;;;6.90;49.03;95429.94;4996555;28;20088;-57
2021/03/16 10:11:50;;;;;;;36.28;23.17;;;;;;;6.88;48.99;95434.63;4979978;28;20246;-57
2021/03/16 10:14:27;;;;;;;35.50;23.45;;;;;;;6.85;48.77;95428.03;5015789;28;20057;-56
2021/03/16 10:16:55;;;;;;;29.10;20.63;;;;;;;6.74;48.21;95421.88;5000630;28;20426;-64
2021/03/16 10:19:24;;;;;;;31.02;21.65;;;;;;;6.93;47.89;95425.00;5011958;28;20815;-57
2021/03/16 10:21:51;;;;;;;27.52;21.15;;;;;;;7.18;47.41;95418.44;4979979;28;20061;-56
2021/03/16 10:24:27;;;;;;;28.55;20.88;;;;;;;7.46;48.29;95421.09;5018829;28;20057;-57
2021/03/16 10:27:01;;;;;;;26.58;19.92;;;;;;;7.58;47.45;95407.81;5017044;28;21446;-57
2021/03/16 10:29:28;;;;;;;33.08;21.73;;;;;;;7.63;47.31;95419.16;5017361;28;20053;-56
2021/03/16 10:31:56;;;;;;;28.15;19.10;;;;;;;7.58;46.25;95418.31;5022298;28;20060;-55
2021/03/16 10:34:26;;;;;;;37.33;22.73;;;;;;;7.48;46.30;95430.31;5005194;28;20049;-55
2021/03/16 10:36:53;;;;;;;26.45;19.38;;;;;;;7.07;47.20;95420.19;5008395;28;20045;-55
2021/03/16 10:39:20;;;;;;;21.80;17.42;;;;;;;6.77;47.21;95413.53;5014633;28;20060;-55
2021/03/16 10:41:49;;;;;;;27.25;19.35;;;;;;;6.79;48.49;95417.75;5009629;28;20045;-55
2021/03/16 10:44:17;;;;;;;29.05;19.67;;;;;;;6.87;47.76;95415.50;4971007;28;20056;-56
2021/03/16 10:46:47;;;;;;;27.55;22.08;;;;;;;6.91;48.67;95426.28;5005025;28;20402;-56
2021/03/16 10:49:15;;;;;;;30.70;21.02;;;;;;;6.97;48.86;95420.03;5003560;28;20045;-56
2021/03/16 10:51:42;;;;;;;27.17;20.20;;;;;;;6.88;49.13;95424.13;4992634;28;20069;-56
2021/03/16 10:54:10;;;;;;;27.38;20.02;;;;;;;6.90;49.36;95420.22;5015934;28;20049;-56
2021/03/16 10:56:37;;;;;;;34.72;20.85;;;;;;;6.85;49.27;95422.00;5001936;28;20056;-57
2021/03/16 10:59:06;;;;;;;27.55;20.02;;;;;;;6.77;48.87;95431.06;4988528;28;20049;-56
2021/03/16 11:01:33;;;;;;;30.08;19.48;;;;;;;6.56;49.53;95425.56;4980111;28;20057;-56
2021/03/16 11:04:00;;;;;;;27.60;19.23;;;;;;;6.45;50.00;95419.41;4993767;28;20544;-56
2021/03/16 11:06:28;;;;;;;26.63;21.20;;;;;;;6.20;50.39;95434.78;5008426;28;20045;-57
2021/03/16 11:08:55;;;;;;;26.85;18.88;;;;;;;6.25;50.74;95430.41;4997991;28;20049;-56
2021/03/16 11:11:23;;;;;;;24.23;18.20;;;;;;;6.29;50.83;95435.94;4995855;28;20076;-56
2021/03/16 11:13:50;;;;;;;24.20;17.42;;;;;;;6.34;50.02;95428.16;4992927;28;20049;-57
2021/03/16 11:16:17;;;;;;;28.08;18.95;;;;;;;6.49;50.37;95427.59;4991744;28;20049;-56
2021/03/16 11:18:45;;;;;;;23.40;16.63;;;;;;;6.57;49.67;95429.00;5019686;28;20045;-55
2021/03/16 11:21:12;;;;;;;21.35;16.42;;;;;;;6.60;50.34;95436.34;5017202;28;20053;-57
2021/03/16 11:23:40;;;;;;;25.83;15.98;;;;;;;6.74;49.61;95421.09;5011790;28;20061;-55
2021/03/16 11:26:07;;;;;;;23.63;15.32;;;;;;;6.86;49.47;95426.19;5009907;28;20085;-56
2021/03/16 11:28:34;;;;;;;23.20;16.05;;;;;;;6.97;48.88;95429.75;5013061;28;21010;-55
2021/03/16 11:31:02;;;;;;;24.27;17.52;;;;;;;7.07;49.20;95435.13;5009502;28;20060;-56
2021/03/16 11:34:07;;;;;;;19.83;13.98;;;;;;;7.07;49.01;95432.50;5006462;28;20049;-59
2021/03/16 11:36:54;;;;;;;23.73;16.10;;;;;;;6.98;49.52;95426.88;5009679;28;20058;-56
2021/03/16 11:39:41;;;;;;;19.00;13.82;;;;;;;6.95;49.33;95429.19;5003647;28;20041;-56
2021/03/16 11:42:28;;;;;;;22.60;15.35;;;;;;;6.95;49.42;95419.53;4989415;28;20063;-56
2021/03/16 11:45:19;;;;;;;18.63;12.98;;;;;;;7.08;48.74;95431.44;5008713;28;20041;-61
2021/03/16 11:48:06;;;;;;;16.65;12.90;;;;;;;6.99;48.67;95428.47;5017668;28;20499;-57
2021/03/16 11:50:53;;;;;;;18.13;13.43;;;;;;;6.90;49.85;95432.56;5016963;28;20061;-57
2021/03/16 11:53:40;;;;;;;16.13;12.77;;;;;;;7.10;48.67;95425.94;5019109;28;20404;-56
2021/03/16 11:56:26;;;;;;;19.33;14.90;;;;;;;7.17;49.22;95432.59;5015264;28;20045;-56
2021/03/16 11:59:12;;;;;;;19.70;13.50;;;;;;;7.27;48.77;95425.88;5014155;28;20046;-55
2021/03/16 12:01:58;;;;;;;17.27;13.82;;;;;;;7.33;49.39;95424.91;4997535;28;20960;-56
2021/03/16 12:04:47;;;;;;;19.10;13.05;;;;;;;7.27;49.42;95426.69;4993754;28;22458;-56
2021/03/16 12:07:33;;;;;;;18.92;11.90;;;;;;;6.97;48.86;95420.03;5005356;28;20440;-56
2021/03/16 12:10:19;;;;;;;14.45;11.68;;;;;;;6.99;49.31;95423.22;4979356;28;20869;-55
2021/03/16 12:13:06;;;;;;;16.60;10.88;;;;;;;6.89;49.19;95423.09;4994972;28;20410;-55
2021/03/16 12:15:52;;;;;;;17.50;9.77;;;;;;;6.83;49.75;95424.88;4985325;28;20050;-55
2021/03/16 12:18:38;;;;;;;14.52;10.40;;;;;;;6.87;49.66;95414.69;5012338;28;20418;-56
2021/03/16 12:21:24;;;;;;;17.13;9.70;;;;;;;6.98;49.56;95420.84;5018262;28;20077;-55
2021/03/16 12:24:10;;;;;;;16.40;8.85;;;;;;;7.17;48.49;95413.47;4994367;28;20594;-56
2021/03/16 12:26:56;;;;;;;14.48;8.48;;;;;;;7.43;47.16;95390.09;4998436;28;20137;-55
2021/03/16 12:29:42;;;;;;;;;;;;;;;7.50;46.31;95393.31;5009378;28;20038;-55
2021/03/16 12:32:28;;;;;;;10.02;7.65;;;;;;;7.59;46.79;95393.66;5015450;28;19921;-55
2021/03/16 12:35:15;;;;;;;11.02;7.75;;;;;;;7.52;47.02;95393.84;4987095;28;20058;-56